Time;durP1;ratioP1;P1;durP2;ratioP2;P2;SDS_P1;SDS_P2;PMS_P1;PMS_P2;Temp;Humidity;BMP_temperature;BMP_pressure;BME280_temperature;BME280_humidity;BME280_pressure;Samples;Min_cycle;Max_cycle;Signal;HPM_P1;HPM_P2
2022/11/07 00:02:07;;;;;;;14.40;3.38;;;11.70;99.90;;;;;;4992144;28;20490;-73
2022/11/07 00:04:33;;;;;;;12.43;3.50;;;11.80;99.90;;;;;;4985974;28;20018;-73
2022/11/07 00:06:59;;;;;;;15.30;3.55;;;11.80;99.90;;;;;;4991512;28;20109;-73
2022/11/07 00:09:25;;;;;;;16.38;3.80;;;11.80;99.90;;;;;;4992539;28;20038;-73
2022/11/07 00:11:52;;;;;;;13.50;3.75;;;11.80;99.90;;;;;;4990172;28;20491;-77
2022/11/07 00:14:18;;;;;;;16.33;3.50;;;11.90;99.90;;;;;;4991816;28;20026;-73
2022/11/07 00:16:45;;;;;;;13.32;3.28;;;11.80;99.90;;;;;;4977697;28;20033;-72
2022/11/07 00:19:13;;;;;;;11.48;3.25;;;11.90;99.90;;;;;;4992104;28;20387;-73
2022/11/07 00:21:40;;;;;;;12.77;3.50;;;11.90;99.90;;;;;;4991489;28;20470;-73
2022/11/07 00:24:06;;;;;;;13.50;3.70;;;11.90;99.90;;;;;;4991937;28;20045;-74
2022/11/07 00:26:32;;;;;;;11.93;3.13;;;11.90;99.90;;;;;;4979852;28;20038;-73
2022/11/07 00:28:58;;;;;;;17.13;3.53;;;11.90;99.90;;;;;;4976185;28;20043;-72
2022/11/07 00:31:24;;;;;;;12.07;3.35;;;11.90;99.90;;;;;;4981795;28;20163;-74
2022/11/07 00:33:51;;;;;;;14.40;3.20;;;11.80;99.90;;;;;;4978545;28;20034;-73
2022/11/07 00:36:25;;;;;;;14.82;3.28;;;11.80;99.90;;;;;;4984663;28;20036;-73
2022/11/07 00:38:51;;;;;;;12.25;2.72;;;11.80;99.90;;;;;;4978065;28;20035;-73
2022/11/07 00:41:17;;;;;;;10.43;2.90;;;11.80;99.90;;;;;;4977972;28;20035;-73
2022/11/07 00:43:43;;;;;;;15.23;3.33;;;11.80;99.90;;;;;;4987987;28;20022;-73
2022/11/07 00:46:11;;;;;;;14.93;3.00;;;11.70;99.90;;;;;;4981738;28;20038;-73
2022/11/07 00:48:37;;;;;;;13.45;3.08;;;11.70;99.90;;;;;;4985230;28;20039;-73
2022/11/07 00:51:20;;;;;;;16.05;2.92;;;11.80;99.90;;;;;;4982712;28;20022;-74
2022/11/07 00:53:46;;;;;;;13.95;2.92;;;11.80;99.90;;;;;;4990955;28;20034;-74
2022/11/07 00:56:14;;;;;;;16.20;2.90;;;11.70;99.90;;;;;;4984422;28;20045;-74
2022/11/07 00:58:41;;;;;;;11.88;2.92;;;11.70;99.90;;;;;;4988504;28;20019;-73
2022/11/07 01:01:19;;;;;;;11.20;2.60;;;11.70;99.90;;;;;;4984381;28;20030;-74
2022/11/07 01:06:31;;;;;;;13.27;3.08;;;11.80;99.90;;;;;;4971559;28;20041;-72
2022/11/07 01:08:57;;;;;;;15.30;2.83;;;11.80;99.90;;;;;;4979642;28;20077;-72
2022/11/07 01:11:24;;;;;;;16.42;3.05;;;11.80;99.90;;;;;;4974304;28;20035;-74
2022/11/07 01:13:58;;;;;;;16.17;3.75;;;11.80;99.90;;;;;;4976374;28;20041;-74
2022/11/07 01:16:24;;;;;;;15.13;3.28;;;11.80;99.90;;;;;;4977772;28;20038;-73
2022/11/07 01:18:50;;;;;;;12.38;2.72;;;11.80;99.90;;;;;;4990649;28;20109;-73
2022/11/07 01:21:15;;;;;;;22.08;3.13;;;11.80;99.90;;;;;;4975062;28;20106;-73
2022/11/07 01:23:41;;;;;;;16.90;3.22;;;11.80;99.90;;;;;;4973789;28;20031;-74
2022/11/07 01:26:09;;;;;;;14.02;3.33;;;11.80;99.90;;;;;;4979557;28;20406;-73
2022/11/07 01:28:35;;;;;;;19.65;3.03;;;11.70;99.90;;;;;;4989190;28;20034;-73
2022/11/07 01:31:10;;;;;;;16.48;3.53;;;11.70;99.90;;;;;;4982699;28;20026;-74
2022/11/07 01:33:37;;;;;;;10.70;3.45;;;11.70;99.90;;;;;;4986384;28;20054;-73
2022/11/07 01:36:07;;;;;;;14.57;3.17;;;11.70;99.90;;;;;;4986543;28;20528;-73
2022/11/07 01:38:34;;;;;;;14.82;3.65;;;11.70;99.90;;;;;;4985556;28;20026;-73
2022/11/07 01:43:49;;;;;;;16.02;3.15;;;11.70;99.90;;;;;;4986683;28;20088;-73
2022/11/07 01:46:15;;;;;;;11.95;3.40;;;11.70;99.90;;;;;;4983051;28;20506;-73
2022/11/07 01:48:45;;;;;;;15.13;2.95;;;11.70;99.90;;;;;;4972686;28;20523;-75
2022/11/07 01:51:12;;;;;;;12.77;3.40;;;11.70;99.90;;;;;;4990986;28;20414;-74
2022/11/07 01:53:39;;;;;;;18.48;3.40;;;11.70;99.90;;;;;;4976585;28;20463;-72
2022/11/07 01:56:11;;;;;;;15.27;3.42;;;11.70;99.90;;;;;;4984789;28;20031;-72
2022/11/07 01:58:37;;;;;;;22.52;3.45;;;11.70;99.90;;;;;;4977260;28;20027;-73
2022/11/07 02:01:03;;;;;;;18.83;3.28;;;11.70;99.90;;;;;;4989131;28;20030;-72
2022/11/07 02:03:29;;;;;;;13.82;2.92;;;11.70;99.90;;;;;;4981355;28;20068;-73
2022/11/07 02:06:19;;;;;;;11.40;2.85;;;11.70;99.90;;;;;;4988345;28;20502;-73
2022/11/07 02:08:47;;;;;;;13.15;3.45;;;11.80;99.90;;;;;;4990236;28;20042;-72
2022/11/07 02:11:13;;;;;;;11.88;3.35;;;11.70;99.90;;;;;;4990109;28;20026;-73
2022/11/07 02:13:39;;;;;;;14.95;3.08;;;11.70;99.90;;;;;;4981249;28;20402;-72
2022/11/07 02:16:05;;;;;;;18.92;3.30;;;11.70;99.90;;;;;;4978378;28;20026;-73
2022/11/07 02:18:34;;;;;;;12.20;2.97;;;11.80;99.90;;;;;;4989858;28;20115;-73
2022/11/07 02:21:08;;;;;;;16.27;3.58;;;11.80;99.90;;;;;;4978819;28;20038;-73
2022/11/07 02:24:05;;;;;;;14.05;3.20;;;11.80;99.90;;;;;;4987590;28;20030;-74
2022/11/07 02:26:32;;;;;;;12.45;3.40;;;11.80;99.90;;;;;;4964056;28;20038;-74
2022/11/07 02:29:00;;;;;;;11.25;3.33;;;11.80;99.90;;;;;;4980630;28;20386;-73
2022/11/07 02:31:25;;;;;;;14.02;3.15;;;11.80;99.90;;;;;;4987801;28;20085;-74
2022/11/07 02:33:51;;;;;;;12.13;3.03;;;11.80;99.90;;;;;;4986257;28;20027;-72
2022/11/07 02:36:20;;;;;;;12.90;3.33;;;11.80;99.90;;;;;;4971271;28;20126;-73
2022/11/07 02:38:50;;;;;;;12.68;2.88;;;11.80;99.90;;;;;;4986827;28;20425;-73
2022/11/07 02:41:18;;;;;;;11.32;3.05;;;11.80;99.90;;;;;;4990902;28;20026;-74
2022/11/07 02:44:00;;;;;;;11.27;2.83;;;11.80;99.90;;;;;;4993406;28;20061;-73
2022/11/07 02:46:27;;;;;;;14.10;2.80;;;11.80;99.90;;;;;;4993515;28;20379;-72
2022/11/07 02:48:55;;;;;;;16.27;3.45;;;11.80;99.90;;;;;;4993796;28;20022;-73
2022/11/07 02:51:21;;;;;;;11.70;3.15;;;11.80;99.90;;;;;;4989328;28;20031;-74
2022/11/07 02:53:47;;;;;;;16.48;3.70;;;11.80;99.90;;;;;;4986726;28;20034;-74
2022/11/07 02:56:13;;;;;;;16.75;3.58;;;11.80;99.90;;;;;;4993305;28;20037;-72
2022/11/07 02:58:39;;;;;;;14.52;3.60;;;11.80;99.90;;;;;;4993444;28;20383;-73
2022/11/07 03:01:08;;;;;;;13.32;2.90;;;11.80;99.90;;;;;;4979152;28;20571;-73
2022/11/07 03:03:39;;;;;;;12.85;3.08;;;11.80;99.90;;;;;;4990046;28;20037;-72
2022/11/07 03:06:07;;;;;;;13.20;3.25;;;11.80;99.90;;;;;;4987304;28;20431;-73
2022/11/07 03:08:33;;;;;;;16.08;2.83;;;11.80;99.90;;;;;;4989163;28;20379;-73
2022/11/07 03:10:59;;;;;;;13.98;3.00;;;11.80;99.90;;;;;;4992701;28;20044;-74
2022/11/07 03:13:25;;;;;;;14.00;2.72;;;11.70;99.90;;;;;;4987694;28;20044;-73
2022/11/07 03:15:51;;;;;;;13.52;3.15;;;11.70;99.90;;;;;;4993266;28;20018;-73
2022/11/07 03:18:17;;;;;;;13.35;2.80;;;11.70;99.90;;;;;;4992706;28;20483;-73
2022/11/07 03:20:43;;;;;;;17.88;2.85;;;11.80;99.90;;;;;;4992699;28;20014;-74
2022/11/07 03:23:09;;;;;;;12.55;2.58;;;11.80;99.90;;;;;;4991725;28;20069;-73
2022/11/07 03:25:34;;;;;;;15.68;2.42;;;11.80;99.90;;;;;;4991437;28;20022;-73
2022/11/07 03:28:00;;;;;;;14.80;3.22;;;11.80;99.90;;;;;;4987521;28;20113;-73
2022/11/07 03:30:26;;;;;;;17.55;3.05;;;11.70;99.90;;;;;;4986948;28;20029;-73
2022/11/07 03:32:52;;;;;;;13.45;3.35;;;11.80;99.90;;;;;;4987461;28;20015;-74
2022/11/07 03:35:18;;;;;;;11.13;2.40;;;11.80;99.90;;;;;;4992143;28;20442;-73
2022/11/07 03:37:45;;;;;;;21.13;3.05;;;11.70;99.90;;;;;;4991551;28;20030;-74
2022/11/07 03:40:11;;;;;;;16.45;3.20;;;11.80;99.90;;;;;;4986673;28;20065;-73
2022/11/07 03:42:40;;;;;;;19.05;3.33;;;11.70;99.90;;;;;;4983214;28;20531;-73
2022/11/07 03:45:07;;;;;;;18.85;3.30;;;11.80;99.90;;;;;;4992592;28;20060;-73
2022/11/07 03:47:38;;;;;;;14.65;2.85;;;11.70;99.90;;;;;;4978290;28;20038;-72
2022/11/07 03:50:07;;;;;;;14.30;3.00;;;11.80;99.90;;;;;;4983814;28;20033;-73
2022/11/07 03:52:32;;;;;;;16.02;3.13;;;11.80;99.90;;;;;;4982250;28;20027;-72
2022/11/07 03:54:58;;;;;;;17.63;3.10;;;11.80;99.90;;;;;;4990066;28;20037;-73
2022/11/07 03:57:23;;;;;;;17.48;3.30;;;11.80;99.90;;;;;;4992058;28;20030;-74
2022/11/07 03:59:49;;;;;;;18.90;3.50;;;11.80;99.90;;;;;;4982564;28;20438;-73
2022/11/07 04:02:15;;;;;;;18.25;3.67;;;11.80;99.90;;;;;;4987294;28;20027;-72
2022/11/07 04:04:40;;;;;;;23.67;3.53;;;11.80;99.90;;;;;;4979310;28;20386;-74
2022/11/07 04:07:06;;;;;;;22.05;3.65;;;11.80;99.90;;;;;;4987838;28;20474;-73
2022/11/07 04:09:32;;;;;;;22.20;3.55;;;11.80;99.90;;;;;;4991687;28;20098;-73
2022/11/07 04:17:46;;;;;;;19.05;3.25;;;11.90;99.90;;;;;;4969936;28;20045;-73
2022/11/07 04:20:11;;;;;;;17.15;2.90;;;11.90;99.90;;;;;;4964448;28;20038;-73
2022/11/07 04:22:37;;;;;;;19.02;3.03;;;11.90;99.90;;;;;;4970073;28;20031;-73
2022/11/07 04:25:02;;;;;;;16.13;3.15;;;11.90;99.90;;;;;;4968886;28;20239;-73
2022/11/07 04:27:43;;;;;;;15.75;3.35;;;11.90;99.90;;;;;;4969612;28;20372;-73
2022/11/07 04:30:18;;;;;;;20.48;3.97;;;11.90;99.90;;;;;;4968047;28;20070;-73
2022/11/07 04:32:45;;;;;;;17.00;3.47;;;11.90;99.90;;;;;;4971039;28;20039;-74
2022/11/07 04:35:11;;;;;;;22.98;3.45;;;11.90;99.90;;;;;;4967919;28;20078;-73
2022/11/07 04:37:37;;;;;;;15.82;3.30;;;11.90;99.90;;;;;;4966288;28;20035;-72
2022/11/07 04:40:03;;;;;;;21.88;3.40;;;11.90;99.90;;;;;;4973372;28;20113;-72
2022/11/07 04:42:28;;;;;;;22.90;3.53;;;11.90;99.90;;;;;;4974679;28;20086;-73
2022/11/07 04:44:54;;;;;;;17.83;3.33;;;11.90;99.90;;;;;;4969842;28;20089;-73
2022/11/07 04:47:19;;;;;;;20.60;3.78;;;11.90;99.90;;;;;;4980721;28;20037;-72
2022/11/07 04:49:45;;;;;;;25.00;2.92;;;11.90;99.90;;;;;;4990982;28;20033;-73
2022/11/07 04:52:11;;;;;;;17.23;3.25;;;11.90;99.90;;;;;;4991243;28;20030;-73
2022/11/07 04:54:37;;;;;;;16.05;2.90;;;11.90;99.90;;;;;;4963443;28;20027;-73
2022/11/07 04:57:02;;;;;;;20.08;3.30;;;11.90;99.90;;;;;;4989725;28;20026;-73
2022/11/07 04:59:28;;;;;;;22.35;3.38;;;11.90;99.90;;;;;;4991224;28;20023;-73
2022/11/07 05:01:53;;;;;;;21.48;3.42;;;12.00;99.90;;;;;;4990850;28;20407;-73
2022/11/07 05:04:19;;;;;;;20.92;3.67;;;11.90;99.90;;;;;;4988374;28;20101;-72
2022/11/07 05:06:45;;;;;;;17.73;3.30;;;11.90;99.90;;;;;;4990501;28;20037;-72
2022/11/07 05:09:19;;;;;;;19.25;3.10;;;11.90;99.90;;;;;;4991322;28;20026;-73
2022/11/07 05:11:46;;;;;;;17.30;3.85;;;12.00;99.90;;;;;;4990710;28;20475;-73
2022/11/07 05:14:12;;;;;;;20.08;3.47;;;12.00;99.90;;;;;;4981047;28;20061;-74
2022/11/07 05:16:40;;;;;;;18.73;3.33;;;12.00;99.90;;;;;;4991485;28;20031;-73
2022/11/07 05:19:06;;;;;;;21.80;3.78;;;12.00;99.90;;;;;;4989301;28;20498;-74
2022/11/07 05:21:31;;;;;;;18.58;3.33;;;12.00;99.90;;;;;;5006000;28;20060;-73
2022/11/07 05:23:57;;;;;;;22.02;3.75;;;12.00;99.90;;;;;;4991110;28;20030;-72
2022/11/07 05:26:22;;;;;;;21.88;3.90;;;12.00;99.90;;;;;;4990950;28;20101;-73
2022/11/07 05:28:48;;;;;;;18.35;4.10;;;12.00;99.90;;;;;;4990577;28;20037;-73
2022/11/07 05:31:16;;;;;;;14.65;3.55;;;12.00;99.90;;;;;;4990606;28;20029;-73
2022/11/07 05:33:41;;;;;;;19.50;3.95;;;12.00;99.90;;;;;;4988418;28;20380;-75
2022/11/07 05:36:15;;;;;;;19.70;3.58;;;12.00;99.90;;;;;;4990242;28;20030;-72
2022/11/07 05:38:42;;;;;;;20.75;3.63;;;12.00;99.90;;;;;;4991531;28;20026;-72
2022/11/07 05:41:09;;;;;;;25.25;3.65;;;12.00;99.90;;;;;;4990063;28;20014;-73
2022/11/07 05:43:37;;;;;;;22.58;3.65;;;12.10;99.90;;;;;;4987623;28;20105;-71
2022/11/07 05:46:02;;;;;;;31.65;4.28;;;12.10;99.90;;;;;;4988091;28;20022;-69
2022/11/07 05:48:29;;;;;;;22.38;3.88;;;12.10;99.90;;;;;;4989296;28;20089;-73
2022/11/07 05:50:55;;;;;;;24.60;4.70;;;12.10;99.90;;;;;;4992829;28;20365;-71
2022/11/07 05:53:21;;;;;;;20.85;4.50;;;12.10;99.90;;;;;;4989841;28;20057;-71
2022/11/07 05:55:47;;;;;;;18.85;4.20;;;12.10;99.90;;;;;;4989880;28;20050;-71
2022/11/07 05:58:13;;;;;;;15.02;3.90;;;12.10;99.90;;;;;;4991122;28;20094;-70
2022/11/07 06:00:39;;;;;;;22.20;4.03;;;12.10;99.90;;;;;;4996233;28;20708;-71
2022/11/07 06:03:06;;;;;;;19.90;3.80;;;12.10;99.90;;;;;;4990863;28;20105;-71
2022/11/07 06:05:31;;;;;;;25.85;4.25;;;12.20;99.90;;;;;;4991797;28;20057;-71
2022/11/07 06:07:57;;;;;;;20.10;4.47;;;12.20;99.90;;;;;;4992400;28;20515;-72
2022/11/07 06:10:23;;;;;;;19.63;4.03;;;12.20;99.90;;;;;;4992552;28;20106;-70
2022/11/07 06:13:03;;;;;;;25.20;4.53;;;12.20;99.90;;;;;;4992748;28;20018;-71
2022/11/07 06:15:31;;;;;;;21.60;4.25;;;12.20;99.90;;;;;;4995567;28;20026;-71
2022/11/07 06:18:04;;;;;;;18.20;4.38;;;12.20;99.90;;;;;;4995552;28;20499;-72
2022/11/07 06:20:29;;;;;;;20.48;3.70;;;12.20;99.90;;;;;;4995706;28;20030;-70
2022/11/07 06:22:59;;;;;;;18.42;3.88;;;12.20;99.90;;;;;;4995056;28;20034;-71
2022/11/07 06:25:26;;;;;;;23.27;4.15;;;12.30;99.90;;;;;;4993634;28;20033;-71
2022/11/07 06:27:52;;;;;;;18.08;4.45;;;12.20;99.90;;;;;;4994317;28;20026;-71
2022/11/07 06:30:18;;;;;;;15.10;3.35;;;12.20;99.90;;;;;;4995256;28;20096;-71
2022/11/07 06:32:44;;;;;;;17.48;3.60;;;12.20;99.90;;;;;;4993815;28;20089;-71
2022/11/07 06:35:11;;;;;;;17.77;3.78;;;12.20;99.90;;;;;;4993041;28;20040;-71
2022/11/07 06:37:37;;;;;;;17.17;3.53;;;12.20;99.90;;;;;;4991955;28;20061;-71
2022/11/07 06:40:02;;;;;;;19.05;3.13;;;12.20;99.90;;;;;;4992416;28;20502;-71
2022/11/07 06:42:28;;;;;;;15.75;3.20;;;12.10;99.90;;;;;;4993664;28;20077;-74
2022/11/07 06:44:53;;;;;;;19.92;3.28;;;12.10;99.90;;;;;;4990331;28;20030;-72
2022/11/07 06:47:19;;;;;;;17.92;3.25;;;12.10;99.90;;;;;;4990684;28;20026;-71
2022/11/07 06:49:45;;;;;;;16.67;3.45;;;12.10;99.90;;;;;;4994420;28;20050;-71
2022/11/07 06:52:10;;;;;;;20.88;3.90;;;12.00;99.90;;;;;;4993834;28;20037;-71
2022/11/07 06:54:36;;;;;;;16.63;3.38;;;12.10;99.90;;;;;;4993970;28;20033;-72
2022/11/07 06:57:01;;;;;;;21.83;3.65;;;12.10;99.90;;;;;;4991543;28;20040;-72
2022/11/07 06:59:27;;;;;;;16.88;3.30;;;12.10;99.90;;;;;;4993792;28;20414;-70
2022/11/07 07:01:52;;;;;;;21.58;3.50;;;12.00;99.90;;;;;;4988357;28;20042;-71
2022/11/07 07:04:18;;;;;;;20.35;3.05;;;12.10;99.90;;;;;;4990808;28;20126;-70
2022/11/07 07:06:44;;;;;;;23.77;3.17;;;12.10;99.90;;;;;;4991688;28;20026;-70
2022/11/07 07:09:10;;;;;;;18.70;3.63;;;12.00;99.90;;;;;;4992826;28;20362;-72
2022/11/07 07:11:36;;;;;;;18.88;3.17;;;12.10;99.90;;;;;;4992140;28;20030;-74
2022/11/07 07:14:02;;;;;;;21.45;3.40;;;12.10;99.90;;;;;;4993381;28;20386;-72
2022/11/07 07:16:28;;;;;;;21.73;3.40;;;12.10;99.90;;;;;;4990123;28;20509;-71
2022/11/07 07:18:54;;;;;;;19.45;3.05;;;12.10;99.90;;;;;;4990439;28;20054;-71
2022/11/07 07:21:19;;;;;;;16.88;3.00;;;12.00;99.90;;;;;;4993156;28;20025;-70
2022/11/07 07:23:45;;;;;;;24.05;3.72;;;12.10;99.90;;;;;;4993511;28;20154;-70
2022/11/07 07:26:15;;;;;;;20.42;2.85;;;12.10;99.90;;;;;;4994481;28;20025;-70
2022/11/07 07:28:42;;;;;;;16.25;2.90;;;12.10;99.90;;;;;;4993144;28;20035;-70
2022/11/07 07:31:13;;;;;;;20.30;3.55;;;12.20;99.90;;;;;;4987334;28;20390;-70
2022/11/07 07:33:43;;;;;;;20.60;3.42;;;12.20;99.90;;;;;;4993954;28;20041;-70
2022/11/07 07:36:10;;;;;;;19.05;3.22;;;12.20;99.90;;;;;;4992561;28;20477;-70
2022/11/07 07:38:35;;;;;;;15.10;3.65;;;12.20;99.90;;;;;;4993505;28;20105;-71
2022/11/07 07:41:01;;;;;;;22.00;3.58;;;12.30;99.90;;;;;;4976960;28;20022;-70
2022/11/07 07:43:28;;;;;;;18.67;3.20;;;12.30;99.90;;;;;;4983934;28;20054;-70
2022/11/07 07:46:02;;;;;;;15.50;3.10;;;12.30;99.90;;;;;;4985489;28;20084;-70
2022/11/07 07:48:28;;;;;;;18.88;3.45;;;12.30;99.90;;;;;;4972697;28;20058;-69
2022/11/07 07:50:54;;;;;;;17.90;3.22;;;12.30;99.90;;;;;;4986270;28;20042;-71
2022/11/07 07:53:20;;;;;;;20.98;2.95;;;12.40;99.90;;;;;;4991168;28;20019;-70
2022/11/07 07:55:45;;;;;;;22.48;3.70;;;12.40;99.90;;;;;;4992036;28;20030;-71
2022/11/07 07:58:11;;;;;;;18.52;3.22;;;12.40;99.90;;;;;;4991809;28;20088;-71
2022/11/07 08:00:38;;;;;;;21.15;3.60;;;12.50;99.90;;;;;;4992416;28;20025;-70
2022/11/07 08:03:09;;;;;;;18.48;3.22;;;12.50;99.90;;;;;;4991638;28;20159;-70
2022/11/07 08:05:36;;;;;;;19.70;3.70;;;12.50;99.90;;;;;;4992371;28;20049;-71
2022/11/07 08:08:03;;;;;;;20.80;3.90;;;12.50;99.90;;;;;;4991544;28;20026;-71
2022/11/07 08:10:28;;;;;;;19.80;3.50;;;12.60;99.90;;;;;;4992228;28;20064;-70
2022/11/07 08:12:54;;;;;;;18.00;3.30;;;12.60;99.90;;;;;;4992613;28;20082;-69
2022/11/07 08:15:20;;;;;;;14.45;3.08;;;12.70;99.90;;;;;;4991136;28;20579;-70
2022/11/07 08:17:46;;;;;;;19.00;4.13;;;12.70;99.90;;;;;;4992435;28;20030;-70
2022/11/07 08:20:15;;;;;;;15.30;3.70;;;12.70;99.90;;;;;;4991116;28;20149;-70
2022/11/07 08:22:40;;;;;;;18.13;3.17;;;12.70;99.90;;;;;;4991625;28;20041;-70
2022/11/07 08:25:08;;;;;;;17.85;3.28;;;12.70;99.90;;;;;;4991170;28;20034;-70
2022/11/07 08:27:34;;;;;;;18.52;3.20;;;12.70;99.90;;;;;;4979998;28;20025;-70
2022/11/07 08:30:00;;;;;;;18.20;2.92;;;12.70;99.90;;;;;;4991239;28;20101;-70
2022/11/07 08:32:27;;;;;;;16.77;3.30;;;12.70;99.90;;;;;;4990554;28;20023;-70
2022/11/07 08:34:52;;;;;;;22.48;3.47;;;12.80;99.90;;;;;;4990500;28;20497;-70
2022/11/07 08:37:18;;;;;;;14.68;3.05;;;12.70;99.90;;;;;;4990903;28;20034;-70
2022/11/07 08:39:44;;;;;;;21.10;3.50;;;12.70;99.90;;;;;;4991467;28;20025;-71
2022/11/07 08:42:10;;;;;;;18.58;3.45;;;12.80;99.90;;;;;;4991379;28;20537;-71
2022/11/07 08:44:35;;;;;;;19.45;3.47;;;12.80;99.90;;;;;;4991057;28;20026;-71
2022/11/07 08:47:02;;;;;;;19.48;3.10;;;12.80;99.90;;;;;;4991400;28;20493;-70
2022/11/07 08:49:28;;;;;;;17.73;3.95;;;12.80;99.90;;;;;;4991169;28;20026;-70
2022/11/07 08:51:53;;;;;;;16.85;3.13;;;12.80;99.90;;;;;;4991083;28;20080;-70
2022/11/07 08:54:20;;;;;;;15.75;2.92;;;12.90;99.90;;;;;;4991217;28;20378;-71
2022/11/07 08:56:46;;;;;;;16.13;2.97;;;12.90;99.90;;;;;;4977685;28;20105;-71
2022/11/07 08:59:12;;;;;;;13.95;2.83;;;13.00;99.90;;;;;;4991490;28;20126;-71
2022/11/07 09:01:38;;;;;;;20.27;3.42;;;13.00;99.90;;;;;;4990625;28;20101;-71
2022/11/07 09:04:03;;;;;;;17.38;3.05;;;13.10;99.90;;;;;;4991078;28;20054;-72
2022/11/07 09:06:31;;;;;;;18.63;3.20;;;13.10;99.90;;;;;;4990672;28;20459;-71
2022/11/07 09:08:57;;;;;;;15.63;3.15;;;13.10;99.90;;;;;;4991228;28;20026;-71
2022/11/07 09:11:23;;;;;;;14.65;3.00;;;13.10;99.90;;;;;;4990458;28;20084;-70
2022/11/07 09:13:48;;;;;;;14.27;2.97;;;13.10;99.90;;;;;;4984595;28;20026;-71
2022/11/07 09:16:17;;;;;;;13.07;2.78;;;13.10;99.90;;;;;;4986211;28;20073;-71
2022/11/07 09:18:44;;;;;;;17.90;3.42;;;13.10;99.90;;;;;;4989352;28;20018;-71
2022/11/07 09:21:10;;;;;;;18.42;3.33;;;13.10;99.90;;;;;;4990776;28;20027;-70
2022/11/07 09:23:36;;;;;;;23.35;3.47;;;13.10;99.90;;;;;;4976907;28;20453;-71
2022/11/07 09:26:01;;;;;;;16.67;3.13;;;13.10;99.90;;;;;;4982073;28;20026;-71
2022/11/07 09:28:27;;;;;;;21.23;3.53;;;13.10;99.90;;;;;;4984612;28;20026;-71
2022/11/07 09:30:54;;;;;;;11.27;2.58;;;13.10;99.90;;;;;;4977833;28;20031;-71
2022/11/07 09:33:20;;;;;;;15.30;3.53;;;13.10;99.90;;;;;;4990566;28;20030;-71
2022/11/07 09:35:47;;;;;;;14.95;2.78;;;13.10;99.90;;;;;;4976656;28;20363;-71
2022/11/07 09:38:13;;;;;;;19.63;3.88;;;13.10;99.90;;;;;;4990983;28;20105;-71
2022/11/07 09:41:05;;;;;;;18.05;3.60;;;13.20;99.90;;;;;;4989251;28;20146;-71
2022/11/07 09:43:59;;;;;;;14.45;3.10;;;13.20;99.90;;;;;;4990413;28;20454;-71
2022/11/07 09:46:36;;;;;;;16.10;2.90;;;13.30;99.90;;;;;;4991322;28;20023;-70
2022/11/07 09:49:17;;;;;;;21.30;3.50;;;13.30;99.90;;;;;;4994959;28;20088;-71
2022/11/07 09:51:58;;;;;;;19.80;3.20;;;13.30;99.90;;;;;;4975015;28;20118;-71
2022/11/07 09:54:30;;;;;;;15.70;3.05;;;13.30;99.90;;;;;;4975122;28;20030;-71
2022/11/07 09:56:58;;;;;;;16.65;2.97;;;13.30;99.90;;;;;;4975171;28;20382;-71
2022/11/07 09:59:31;;;;;;;17.98;3.47;;;13.40;99.90;;;;;;4975144;28;20106;-70
2022/11/07 10:01:56;;;;;;;17.42;3.40;;;13.40;99.90;;;;;;4981473;28;20034;-71
2022/11/07 10:04:23;;;;;;;22.35;3.90;;;13.50;99.90;;;;;;4994327;28;20366;-71
2022/11/07 10:06:56;;;;;;;12.05;3.13;;;13.50;99.90;;;;;;4989929;28;20015;-71
2022/11/07 10:09:40;;;;;;;20.80;3.40;;;13.60;99.90;;;;;;4989235;28;20077;-71
2022/11/07 10:12:17;;;;;;;23.55;4.15;;;13.70;99.90;;;;;;4984258;28;20030;-71
2022/11/07 10:15:09;;;;;;;23.27;3.85;;;13.80;99.90;;;;;;4982000;28;20023;-71
2022/11/07 10:17:45;;;;;;;20.42;4.05;;;13.90;99.90;;;;;;4984911;28;20033;-71
2022/11/07 10:20:18;;;;;;;17.33;3.33;;;13.90;99.90;;;;;;4980579;28;21757;-71
2022/11/07 10:22:58;;;;;;;19.48;3.50;;;13.90;99.90;;;;;;4993719;28;20027;-71
2022/11/07 10:25:28;;;;;;;18.20;4.03;;;13.90;99.90;;;;;;4991492;28;20471;-70
2022/11/07 10:28:17;;;;;;;18.85;3.67;;;13.90;99.90;;;;;;4994304;28;20470;-71
2022/11/07 10:30:47;;;;;;;12.65;3.13;;;13.90;99.90;;;;;;4990601;28;20336;-70
2022/11/07 10:33:38;;;;;;;20.13;3.40;;;13.90;99.90;;;;;;4993599;28;20399;-72
2022/11/07 10:36:30;;;;;;;17.35;3.60;;;13.90;99.90;;;;;;4990868;28;20051;-71
2022/11/07 10:38:56;;;;;;;17.50;2.85;;;13.90;99.90;;;;;;4987489;28;20093;-72
2022/11/07 10:41:24;;;;;;;15.88;3.55;;;13.90;99.90;;;;;;4988070;28;20026;-72
2022/11/07 10:43:57;;;;;;;15.07;2.78;;;13.90;99.90;;;;;;4974000;28;20050;-71
2022/11/07 10:46:43;;;;;;;18.35;3.58;;;13.90;99.90;;;;;;4991875;28;20022;-71
2022/11/07 10:49:29;;;;;;;18.98;3.67;;;13.90;99.90;;;;;;4993603;28;20034;-72
2022/11/07 10:52:15;;;;;;;22.90;3.97;;;13.80;99.90;;;;;;4993808;28;20034;-70
2022/11/07 10:54:42;;;;;;;20.60;3.65;;;13.80;99.90;;;;;;4979322;28;20045;-71
2022/11/07 10:57:22;;;;;;;16.55;3.83;;;13.80;99.90;;;;;;4992996;28;20088;-72
2022/11/07 10:59:50;;;;;;;17.67;3.25;;;13.80;99.90;;;;;;4984861;28;20447;-73
2022/11/07 11:02:25;;;;;;;19.17;3.85;;;13.80;99.90;;;;;;4984839;28;20447;-71
2022/11/07 11:04:57;;;;;;;12.85;3.30;;;13.80;99.90;;;;;;4984839;28;20022;-72
2022/11/07 11:07:34;;;;;;;16.30;3.45;;;13.70;99.90;;;;;;4993435;28;20054;-71
2022/11/07 11:09:59;;;;;;;21.40;4.00;;;13.70;99.90;;;;;;4992838;28;20101;-71
2022/11/07 11:12:28;;;;;;;18.15;3.95;;;13.70;99.90;;;;;;4984864;28;20130;-70
2022/11/07 11:15:14;;;;;;;21.42;4.20;;;13.80;99.90;;;;;;4992652;28;20109;-71
2022/11/07 11:17:40;;;;;;;27.40;4.10;;;13.80;99.90;;;;;;4992790;28;20392;-72
2022/11/07 11:20:22;;;;;;;18.90;4.05;;;13.80;99.90;;;;;;4991400;28;20034;-70
2022/11/07 11:22:48;;;;;;;19.52;3.70;;;13.90;99.90;;;;;;4992669;28;20037;-71
2022/11/07 11:25:16;;;;;;;18.95;3.22;;;13.90;99.90;;;;;;4990518;28;20027;-71
2022/11/07 11:27:45;;;;;;;27.33;4.20;;;13.90;99.90;;;;;;4987216;28;20019;-72
2022/11/07 11:30:16;;;;;;;28.48;4.07;;;14.00;99.90;;;;;;4991309;28;20025;-71
2022/11/07 11:33:06;;;;;;;22.75;3.70;;;14.00;99.90;;;;;;4985238;28;20023;-71
2022/11/07 11:36:02;;;;;;;16.23;3.58;;;14.00;99.90;;;;;;4986906;28;20023;-72
2022/11/07 11:38:29;;;;;;;19.17;3.10;;;14.00;99.90;;;;;;4991693;28;20030;-72
2022/11/07 11:40:59;;;;;;;22.65;3.70;;;14.00;99.90;;;;;;4990701;28;20077;-71
2022/11/07 11:43:42;;;;;;;18.40;3.60;;;14.00;99.90;;;;;;4981011;28;20061;-72
2022/11/07 11:46:13;;;;;;;17.40;3.30;;;14.00;99.90;;;;;;4992594;28;20453;-72
2022/11/07 11:48:51;;;;;;;22.83;3.70;;;14.10;99.90;;;;;;4992763;28;20029;-71
2022/11/07 11:51:38;;;;;;;16.27;3.70;;;14.00;99.90;;;;;;4992369;28;20034;-72
2022/11/07 11:54:08;;;;;;;19.13;3.78;;;14.10;99.90;;;;;;4980648;28;20391;-72
2022/11/07 11:56:57;;;;;;;25.92;4.20;;;14.10;99.90;;;;;;4984957;28;20459;-70
2022/11/07 12:00:00;;;;;;;27.40;3.47;;;14.10;99.90;;;;;;5001927;28;20351;-72
2022/11/07 12:02:47;;;;;;;16.90;3.47;;;14.10;99.90;;;;;;4973869;28;20283;-71
2022/11/07 12:05:36;;;;;;;20.08;3.80;;;14.10;99.90;;;;;;4991360;28;20030;-72
2022/11/07 12:08:29;;;;;;;18.52;3.50;;;14.10;99.90;;;;;;4991483;28;20398;-71
2022/11/07 12:11:10;;;;;;;25.38;3.95;;;14.10;99.90;;;;;;4991165;28;20034;-72
2022/11/07 12:13:53;;;;;;;20.92;3.58;;;14.10;99.90;;;;;;4991150;28;20022;-72
2022/11/07 12:16:46;;;;;;;20.17;3.67;;;14.20;99.90;;;;;;4991977;28;20088;-72
2022/11/07 12:19:25;;;;;;;22.20;3.83;;;14.20;99.90;;;;;;4991761;28;20038;-71
2022/11/07 12:22:35;;;;;;;18.98;3.47;;;14.10;99.90;;;;;;4976452;28;20025;-71
2022/11/07 12:25:23;;;;;;;21.17;3.83;;;14.20;99.90;;;;;;4986979;28;20035;-71
2022/11/07 12:28:02;;;;;;;22.45;3.58;;;14.20;99.90;;;;;;4983259;28;20130;-72
2022/11/07 12:30:45;;;;;;;21.52;3.70;;;14.10;99.90;;;;;;4979957;28;20039;-71
2022/11/07 12:33:44;;;;;;;13.70;3.00;;;14.10;99.90;;;;;;4988660;28;20021;-71
2022/11/07 12:36:40;;;;;;;16.58;3.22;;;14.20;99.90;;;;;;4977774;28;20715;-71
2022/11/07 12:39:18;;;;;;;14.85;2.97;;;14.20;99.90;;;;;;4985886;28;20041;-72
2022/11/07 12:42:07;;;;;;;17.95;3.38;;;14.20;99.90;;;;;;4991443;28;20105;-72
2022/11/07 12:44:59;;;;;;;14.88;3.55;;;14.20;99.90;;;;;;4976672;28;20018;-72
2022/11/07 12:47:30;;;;;;;21.73;3.63;;;14.20;99.90;;;;;;4991879;28;20034;-72
2022/11/07 12:50:01;;;;;;;14.23;3.22;;;14.20;99.90;;;;;;4990463;28;20057;-71
2022/11/07 12:52:58;;;;;;;19.00;3.45;;;14.20;99.90;;;;;;4991402;28;20034;-72
2022/11/07 12:55:34;;;;;;;17.58;3.15;;;14.20;99.90;;;;;;4980317;28;20440;-72
2022/11/07 12:58:01;;;;;;;16.95;3.22;;;14.20;99.90;;;;;;4988643;28;20475;-70
2022/11/07 13:00:28;;;;;;;20.90;3.67;;;14.30;99.90;;;;;;4979733;28;20041;-71
2022/11/07 13:03:11;;;;;;;22.65;3.38;;;14.20;99.90;;;;;;4990560;28;20033;-72